Time;durP1;ratioP1;P1;durP2;ratioP2;P2;SDS_P1;SDS_P2;PMS_P1;PMS_P2;Temp;Humidity;BMP_temperature;BMP_pressure;BME280_temperature;BME280_humidity;BME280_pressure;Samples;Min_cycle;Max_cycle;Signal;HPM_P1;HPM_P2
2021/01/08 00:00:46;;;;;;;23.48;11.95;;;-2.10;99.90;;;;;;4989931;28;20418;-72
2021/01/08 00:03:12;;;;;;;23.85;12.55;;;-2.20;99.90;;;;;;4987547;28;20037;-72
2021/01/08 00:05:38;;;;;;;25.60;13.88;;;-2.20;99.90;;;;;;4989067;28;20524;-72
2021/01/08 00:08:04;;;;;;;28.27;14.40;;;-2.20;99.90;;;;;;4989317;28;20035;-72
2021/01/08 00:10:30;;;;;;;40.50;18.50;;;-2.30;99.90;;;;;;4990076;28;20053;-72
2021/01/08 00:12:56;;;;;;;50.05;19.08;;;-2.40;99.90;;;;;;4987750;28;20462;-72
2021/01/08 00:15:21;;;;;;;31.48;13.45;;;-2.40;99.90;;;;;;4990576;28;20219;-72
2021/01/08 00:17:47;;;;;;;28.35;11.63;;;-2.50;99.90;;;;;;4987533;28;20041;-72
2021/01/08 00:20:13;;;;;;;21.75;11.18;;;-2.50;99.90;;;;;;4989072;28;20042;-72
2021/01/08 00:22:39;;;;;;;20.92;10.15;;;-2.50;99.90;;;;;;4987699;28;20478;-72
2021/01/08 00:25:05;;;;;;;19.42;9.93;;;-2.50;99.90;;;;;;4990773;28;20046;-72
2021/01/08 00:27:30;;;;;;;19.65;9.35;;;-2.50;99.90;;;;;;4987960;28;20141;-72
2021/01/08 00:29:56;;;;;;;18.13;9.27;;;-2.50;99.90;;;;;;4987793;28;20133;-72
2021/01/08 00:32:22;;;;;;;18.55;8.23;;;-2.50;99.90;;;;;;4988268;28;20062;-72
2021/01/08 00:34:48;;;;;;;20.52;9.23;;;-2.50;99.90;;;;;;4988541;28;20110;-72
2021/01/08 00:37:14;;;;;;;20.95;10.10;;;-2.60;99.90;;;;;;4988957;28;20145;-72
2021/01/08 00:39:41;;;;;;;16.95;9.60;;;-2.60;99.90;;;;;;4988412;28;20073;-72
2021/01/08 00:42:07;;;;;;;21.65;10.23;;;-2.60;99.90;;;;;;4989564;28;20030;-72
2021/01/08 00:44:33;;;;;;;19.60;8.95;;;-2.60;99.90;;;;;;4987839;28;20077;-72
2021/01/08 00:46:59;;;;;;;18.52;9.73;;;-2.60;99.90;;;;;;4988810;28;20030;-72
2021/01/08 00:49:25;;;;;;;19.58;8.80;;;-2.60;99.90;;;;;;4979892;28;20429;-72
2021/01/08 00:51:52;;;;;;;22.88;9.52;;;-2.60;99.90;;;;;;4977987;28;20058;-74
2021/01/08 00:54:18;;;;;;;15.45;7.93;;;-2.60;99.90;;;;;;4982630;28;20081;-72
2021/01/08 00:56:44;;;;;;;16.33;8.32;;;-2.60;99.90;;;;;;4989151;28;20865;-72
2021/01/08 00:59:10;;;;;;;18.25;8.77;;;-2.60;99.90;;;;;;4988021;28;20034;-72
2021/01/08 01:01:36;;;;;;;17.98;9.18;;;-2.60;99.90;;;;;;4987680;28;20370;-72
2021/01/08 01:04:01;;;;;;;17.67;9.10;;;-2.60;99.90;;;;;;4987616;28;20470;-75
2021/01/08 01:06:29;;;;;;;18.45;9.48;;;-2.60;99.90;;;;;;4986420;28;20321;-72
2021/01/08 01:08:55;;;;;;;17.08;9.50;;;-2.60;99.90;;;;;;4987155;28;20351;-72
2021/01/08 01:11:22;;;;;;;18.42;10.07;;;-2.60;99.90;;;;;;4985676;28;20418;-72
2021/01/08 01:13:49;;;;;;;16.75;8.80;;;-2.60;99.90;;;;;;4985990;28;20522;-72
2021/01/08 01:16:17;;;;;;;19.23;9.73;;;-2.60;99.90;;;;;;4985036;28;20469;-72
2021/01/08 01:18:43;;;;;;;19.90;9.52;;;-2.70;99.90;;;;;;4988217;28;20072;-72
2021/01/08 01:21:09;;;;;;;18.13;8.63;;;-2.70;99.90;;;;;;4974559;28;20170;-72
2021/01/08 01:23:35;;;;;;;16.58;9.05;;;-2.70;99.90;;;;;;4967616;28;20031;-72
2021/01/08 01:26:01;;;;;;;19.73;10.05;;;-2.70;99.90;;;;;;4965748;28;20049;-72
2021/01/08 01:28:27;;;;;;;19.40;9.98;;;-2.70;99.90;;;;;;4966239;28;20443;-72
2021/01/08 01:30:52;;;;;;;19.63;9.75;;;-2.70;99.90;;;;;;4967731;28;20130;-74
2021/01/08 01:33:18;;;;;;;17.33;8.95;;;-2.80;99.90;;;;;;4967217;28;20426;-72
2021/01/08 01:35:44;;;;;;;15.77;8.32;;;-2.80;99.90;;;;;;4970166;28;20044;-72
2021/01/08 01:38:09;;;;;;;13.43;6.90;;;-2.80;99.90;;;;;;4986668;28;20394;-72
2021/01/08 01:40:35;;;;;;;15.02;7.45;;;-2.70;99.90;;;;;;4985232;28;20042;-72
2021/01/08 01:43:01;;;;;;;18.33;9.07;;;-2.70;99.90;;;;;;4984663;28;20085;-72
2021/01/08 01:45:26;;;;;;;15.13;6.88;;;-2.70;99.90;;;;;;4984831;28;20458;-72
2021/01/08 01:47:52;;;;;;;20.45;9.77;;;-2.70;99.90;;;;;;4967963;28;20031;-74
2021/01/08 01:50:19;;;;;;;17.98;8.40;;;-2.60;99.90;;;;;;4967232;28;20435;-72
2021/01/08 01:52:46;;;;;;;18.80;7.95;;;-2.60;99.90;;;;;;4981804;28;20037;-72
2021/01/08 01:55:13;;;;;;;15.45;7.18;;;-2.60;99.90;;;;;;4985783;28;20109;-72
2021/01/08 01:57:39;;;;;;;14.77;7.65;;;-2.60;99.90;;;;;;4986517;28;20133;-72
2021/01/08 02:00:06;;;;;;;15.05;8.30;;;-2.60;99.90;;;;;;4986250;28;20129;-72
2021/01/08 02:02:55;;;;;;;18.05;8.98;;;-2.60;99.90;;;;;;4985408;28;20148;-72
2021/01/08 02:05:22;;;;;;;19.77;9.27;;;-2.60;99.90;;;;;;4984542;28;20045;-72
2021/01/08 02:08:09;;;;;;;18.83;9.25;;;-2.60;99.90;;;;;;4974615;28;20039;-72
2021/01/08 02:10:42;;;;;;;18.40;9.75;;;-2.70;99.90;;;;;;4966359;28;20027;-72
2021/01/08 02:13:15;;;;;;;24.35;10.73;;;-2.80;99.90;;;;;;4965926;28;20027;-75
2021/01/08 02:15:41;;;;;;;22.27;11.23;;;-2.80;99.90;;;;;;4967541;28;20051;-74
2021/01/08 02:18:07;;;;;;;19.83;10.55;;;-2.90;99.90;;;;;;4975590;28;20097;-72
2021/01/08 02:20:33;;;;;;;16.77;7.90;;;-2.90;99.90;;;;;;4986132;28;20031;-72
2021/01/08 02:23:26;;;;;;;16.15;7.25;;;-2.90;99.90;;;;;;4986608;28;20045;-74
2021/01/08 02:25:52;;;;;;;17.48;8.15;;;-2.90;99.90;;;;;;4986148;28;20049;-72
2021/01/08 02:28:20;;;;;;;13.98;7.07;;;-2.80;99.90;;;;;;4985070;28;20037;-72
2021/01/08 02:30:47;;;;;;;16.98;8.32;;;-2.80;99.90;;;;;;4985117;28;20027;-73
2021/01/08 02:33:14;;;;;;;16.58;7.20;;;-2.80;99.90;;;;;;4984580;28;20073;-72
2021/01/08 02:35:41;;;;;;;16.55;8.40;;;-2.80;99.90;;;;;;4986361;28;20026;-72
2021/01/08 02:38:07;;;;;;;19.67;10.02;;;-2.70;99.90;;;;;;4984479;28;20034;-72
2021/01/08 02:40:34;;;;;;;18.60;9.48;;;-2.80;99.90;;;;;;4986072;28;20512;-72
2021/01/08 02:43:03;;;;;;;18.05;9.52;;;-2.70;99.90;;;;;;4983543;28;20383;-72
2021/01/08 02:45:29;;;;;;;17.08;9.25;;;-2.80;99.90;;;;;;4964729;28;20038;-72
2021/01/08 02:47:55;;;;;;;16.85;8.93;;;-2.80;99.90;;;;;;4966930;28;20045;-72
2021/01/08 02:50:21;;;;;;;16.73;9.15;;;-2.90;99.90;;;;;;4983311;28;20030;-72
2021/01/08 02:52:50;;;;;;;18.52;8.55;;;-2.90;99.90;;;;;;4984834;28;20048;-72
2021/01/08 02:55:23;;;;;;;16.98;8.32;;;-2.90;99.90;;;;;;4985088;28;20034;-72
2021/01/08 02:57:49;;;;;;;16.92;8.02;;;-2.80;99.90;;;;;;4986173;28;20049;-72
2021/01/08 03:00:16;;;;;;;12.90;5.82;;;-2.90;99.90;;;;;;4969766;28;20041;-72
2021/01/08 03:02:42;;;;;;;18.67;7.50;;;-2.80;99.90;;;;;;4965212;28;20493;-72
2021/01/08 03:05:08;;;;;;;16.10;7.57;;;-2.90;99.90;;;;;;4964369;28;20046;-72
2021/01/08 03:07:34;;;;;;;20.45;9.40;;;-2.90;99.90;;;;;;4966744;28;20778;-73
2021/01/08 03:10:00;;;;;;;18.35;7.78;;;-2.90;99.90;;;;;;4974438;28;20504;-72
2021/01/08 03:12:31;;;;;;;19.05;9.52;;;-2.80;99.90;;;;;;4984199;28;20041;-72
2021/01/08 03:14:57;;;;;;;18.88;9.80;;;-2.80;99.90;;;;;;4985740;28;20051;-72
2021/01/08 03:17:23;;;;;;;17.27;9.10;;;-2.80;99.90;;;;;;4985361;28;20592;-72
2021/01/08 03:19:49;;;;;;;17.20;9.05;;;-2.90;99.90;;;;;;4985327;28;20129;-72
2021/01/08 03:22:14;;;;;;;18.65;9.55;;;-2.90;99.90;;;;;;4984592;28;20065;-72
2021/01/08 03:24:40;;;;;;;17.38;8.68;;;-2.90;99.90;;;;;;4984285;28;20030;-74
2021/01/08 03:27:06;;;;;;;18.52;7.82;;;-3.00;99.90;;;;;;4986641;28;20113;-72
2021/01/08 03:29:31;;;;;;;15.70;8.23;;;-3.00;99.90;;;;;;4984980;28;20034;-72
2021/01/08 03:31:57;;;;;;;22.20;8.35;;;-3.00;99.90;;;;;;4984796;28;20043;-72
2021/01/08 03:34:22;;;;;;;17.73;9.02;;;-3.00;99.90;;;;;;4985402;28;20105;-74
2021/01/08 03:36:48;;;;;;;20.45;10.02;;;-3.00;99.90;;;;;;4966729;28;20050;-72
2021/01/08 03:39:13;;;;;;;20.75;10.32;;;-3.00;99.90;;;;;;4965039;28;20038;-72
2021/01/08 03:41:39;;;;;;;19.08;9.75;;;-3.00;99.90;;;;;;4980279;28;20049;-72
2021/01/08 03:44:05;;;;;;;18.90;9.10;;;-3.00;99.90;;;;;;4984449;28;20073;-72
2021/01/08 03:46:35;;;;;;;19.85;8.10;;;-3.00;99.90;;;;;;4972176;28;20107;-72
2021/01/08 03:49:05;;;;;;;16.90;8.77;;;-3.10;99.90;;;;;;4965276;28;20046;-72
2021/01/08 03:51:31;;;;;;;15.65;7.88;;;-3.00;99.90;;;;;;4975118;28;20038;-72
2021/01/08 03:53:57;;;;;;;17.35;9.18;;;-3.10;99.90;;;;;;4984371;28;20508;-72
2021/01/08 03:56:22;;;;;;;18.27;9.02;;;-3.00;99.90;;;;;;4985340;28;20113;-72
2021/01/08 03:58:48;;;;;;;19.20;9.55;;;-3.10;99.90;;;;;;4988470;28;20521;-72
2021/01/08 04:01:14;;;;;;;17.55;7.88;;;-3.10;99.90;;;;;;4986860;28;20664;-72
2021/01/08 04:03:39;;;;;;;19.40;8.55;;;-3.10;99.90;;;;;;4989625;28;20034;-72
2021/01/08 04:06:05;;;;;;;15.70;8.25;;;-3.20;99.90;;;;;;4982870;28;20038;-72
2021/01/08 04:08:30;;;;;;;17.85;8.25;;;-3.10;99.90;;;;;;4966610;28;20034;-72
2021/01/08 04:10:56;;;;;;;17.90;8.80;;;-3.10;99.90;;;;;;4967261;28;20034;-74
2021/01/08 04:13:22;;;;;;;19.23;9.95;;;-3.10;99.90;;;;;;4985550;28;20041;-72
2021/01/08 04:15:47;;;;;;;18.88;9.75;;;-3.20;99.90;;;;;;4986986;28;20054;-72
2021/01/08 04:18:13;;;;;;;18.45;9.63;;;-3.20;99.90;;;;;;4986060;28;20026;-72
2021/01/08 04:20:39;;;;;;;16.67;7.53;;;-3.30;99.90;;;;;;4986655;28;20417;-72
2021/01/08 04:23:04;;;;;;;16.63;7.32;;;-3.30;99.90;;;;;;4985076;28;20371;-72
2021/01/08 04:25:30;;;;;;;16.05;7.60;;;-3.30;99.90;;;;;;4985895;28;20073;-72
2021/01/08 04:27:55;;;;;;;17.50;8.68;;;-3.30;99.90;;;;;;4974562;28;20438;-72
2021/01/08 04:30:23;;;;;;;15.68;8.38;;;-3.30;99.90;;;;;;4967015;28;20039;-74
2021/01/08 04:32:49;;;;;;;22.02;9.77;;;-3.30;99.90;;;;;;4968049;28;20414;-72
2021/01/08 04:35:15;;;;;;;22.58;10.77;;;-3.30;99.90;;;;;;4967478;28;20130;-74
2021/01/08 04:37:41;;;;;;;27.02;12.10;;;-3.30;99.90;;;;;;4975755;28;20036;-75
2021/01/08 04:40:08;;;;;;;26.30;10.30;;;-3.40;99.90;;;;;;4985636;28;20042;-73
2021/01/08 04:42:34;;;;;;;20.55;7.80;;;-3.40;99.90;;;;;;4986155;28;20037;-72
2021/01/08 04:45:03;;;;;;;17.73;9.43;;;-3.40;99.90;;;;;;4986436;28;20073;-72
2021/01/08 04:47:32;;;;;;;21.13;10.05;;;-3.40;99.90;;;;;;4984731;28;20462;-74
2021/01/08 04:49:57;;;;;;;20.20;10.38;;;-3.40;99.90;;;;;;4985992;28;20042;-72
2021/01/08 04:52:24;;;;;;;23.08;10.95;;;-3.40;99.90;;;;;;4985242;28;20132;-72
2021/01/08 04:54:50;;;;;;;24.52;12.50;;;-3.40;99.90;;;;;;4980777;28;20525;-72
2021/01/08 04:57:18;;;;;;;20.85;10.65;;;-3.40;99.90;;;;;;4980770;28;20038;-72
2021/01/08 04:59:44;;;;;;;20.42;11.70;;;-3.50;99.90;;;;;;4971980;28;20060;-72
2021/01/08 05:02:10;;;;;;;21.85;9.95;;;-3.50;99.90;;;;;;4984889;28;20564;-72
2021/01/08 05:04:38;;;;;;;17.08;9.18;;;-3.50;99.90;;;;;;4980959;28;20468;-72
2021/01/08 05:07:04;;;;;;;24.00;10.25;;;-3.50;99.90;;;;;;4976542;28;20034;-72
2021/01/08 05:09:29;;;;;;;17.67;9.63;;;-3.50;99.90;;;;;;4987236;28;20100;-72
2021/01/08 05:11:57;;;;;;;21.23;10.82;;;-3.50;99.90;;;;;;4986616;28;20038;-72
2021/01/08 05:14:25;;;;;;;19.48;10.25;;;-3.50;99.90;;;;;;4972782;28;20051;-72
2021/01/08 05:16:51;;;;;;;18.35;9.40;;;-3.60;99.90;;;;;;4986863;28;20073;-72
2021/01/08 05:19:18;;;;;;;13.88;7.90;;;-3.60;99.90;;;;;;4985678;28;20117;-72
2021/01/08 05:21:44;;;;;;;20.15;7.82;;;-3.70;99.90;;;;;;4980663;28;20034;-73
2021/01/08 05:24:10;;;;;;;17.08;8.52;;;-3.70;99.90;;;;;;4987104;28;20033;-72
2021/01/08 05:26:36;;;;;;;18.80;8.68;;;-3.60;99.90;;;;;;4985940;28;20027;-72
2021/01/08 05:29:03;;;;;;;17.58;9.52;;;-3.80;99.90;;;;;;4986721;28;20149;-75
2021/01/08 05:31:31;;;;;;;19.30;11.02;;;-3.70;99.90;;;;;;4984515;28;20478;-73
2021/01/08 05:33:57;;;;;;;19.92;10.65;;;-3.70;99.90;;;;;;4986530;28;20553;-72
2021/01/08 05:36:24;;;;;;;19.80;10.48;;;-3.70;99.90;;;;;;4986908;28;20137;-72
2021/01/08 05:38:58;;;;;;;20.90;11.10;;;-3.70;99.90;;;;;;4986068;28;20030;-72
2021/01/08 05:41:32;;;;;;;24.67;15.55;;;-3.70;99.90;;;;;;4980551;28;20247;-72
2021/01/08 05:43:59;;;;;;;22.65;10.40;;;-3.70;99.90;;;;;;4986648;28;20039;-72
2021/01/08 05:46:26;;;;;;;19.27;8.77;;;-3.90;99.90;;;;;;4982899;28;20547;-74
2021/01/08 05:48:54;;;;;;;17.13;9.65;;;-3.90;99.90;;;;;;4986058;28;20030;-72
2021/01/08 05:51:22;;;;;;;16.08;8.52;;;-3.90;99.90;;;;;;4985138;28;20061;-72
2021/01/08 05:53:49;;;;;;;18.90;7.72;;;-3.80;99.90;;;;;;4980693;28;20045;-72
2021/01/08 05:56:20;;;;;;;14.45;6.55;;;-3.80;99.90;;;;;;4984532;28;20034;-72
2021/01/08 05:58:47;;;;;;;20.60;10.00;;;-3.80;99.90;;;;;;4985733;28;20038;-74
2021/01/08 06:01:14;;;;;;;24.63;11.68;;;-3.70;99.90;;;;;;4980727;28;20022;-72
2021/01/08 06:03:40;;;;;;;20.83;9.93;;;-3.70;99.90;;;;;;4986177;28;20030;-73
2021/01/08 06:06:07;;;;;;;19.73;10.73;;;-3.80;99.90;;;;;;4981580;28;20498;-73
2021/01/08 06:08:33;;;;;;;20.55;10.27;;;-3.90;99.90;;;;;;4984554;28;20050;-74
2021/01/08 06:11:00;;;;;;;26.75;12.07;;;-3.80;99.90;;;;;;4975934;28;20065;-72
2021/01/08 06:13:30;;;;;;;23.45;10.50;;;-3.90;99.90;;;;;;4974428;28;20027;-73
2021/01/08 06:15:56;;;;;;;19.75;8.50;;;-3.90;99.90;;;;;;4980365;28;20147;-72
2021/01/08 06:18:26;;;;;;;17.65;8.45;;;-3.90;99.90;;;;;;4976441;28;20042;-72
2021/01/08 06:20:53;;;;;;;18.33;7.07;;;-3.90;99.90;;;;;;4979034;28;20030;-73
2021/01/08 06:23:48;;;;;;;14.23;6.55;;;-3.90;99.90;;;;;;4979409;28;20042;-73
2021/01/08 06:26:16;;;;;;;12.98;6.28;;;-3.90;99.90;;;;;;4975893;28;20034;-72
2021/01/08 06:28:50;;;;;;;18.15;9.50;;;-3.90;99.90;;;;;;4983000;28;20031;-73
2021/01/08 06:31:21;;;;;;;22.75;13.25;;;-3.80;99.90;;;;;;4984438;28;20026;-73
2021/01/08 06:34:20;;;;;;;26.53;12.77;;;-3.80;99.90;;;;;;4982302;28;20034;-73
2021/01/08 06:36:46;;;;;;;29.10;12.57;;;-4.00;99.90;;;;;;4975165;28;20038;-74
2021/01/08 06:39:22;;;;;;;24.27;11.10;;;-3.90;99.90;;;;;;4982053;28;20022;-73
2021/01/08 06:41:52;;;;;;;19.52;9.38;;;-3.90;99.90;;;;;;4984184;28;20413;-72
2021/01/08 06:44:24;;;;;;;16.95;8.88;;;-3.80;99.90;;;;;;4984033;28;20050;-73
2021/01/08 06:46:52;;;;;;;16.73;8.50;;;-3.90;99.90;;;;;;4980950;28;20419;-72
2021/01/08 06:49:19;;;;;;;17.55;6.85;;;-3.90;99.90;;;;;;4979631;28;20292;-72
2021/01/08 06:51:45;;;;;;;16.35;7.85;;;-3.90;99.90;;;;;;4973292;28;20039;-72
2021/01/08 06:54:13;;;;;;;33.05;9.50;;;-3.90;99.90;;;;;;4976863;28;20035;-72
2021/01/08 06:56:42;;;;;;;24.52;11.18;;;-3.90;99.90;;;;;;4969607;28;20464;-72
2021/01/08 06:59:17;;;;;;;27.90;12.52;;;-3.90;99.90;;;;;;4976112;28;20113;-72
2021/01/08 07:02:07;;;;;;;26.75;12.60;;;-3.80;99.90;;;;;;4971211;28;20121;-72
2021/01/08 07:04:36;;;;;;;22.30;11.55;;;-3.80;99.90;;;;;;4978354;28;20085;-72
2021/01/08 07:07:04;;;;;;;16.30;8.77;;;-3.90;99.90;;;;;;4983398;28;20053;-73
2021/01/08 07:09:36;;;;;;;19.42;10.48;;;-3.90;99.90;;;;;;4983457;28;20030;-73
2021/01/08 07:12:07;;;;;;;26.90;10.82;;;-3.90;99.90;;;;;;4976293;28;20291;-74
2021/01/08 07:14:37;;;;;;;28.90;12.73;;;-3.80;99.90;;;;;;4973110;28;20545;-72
2021/01/08 07:17:12;;;;;;;22.95;10.82;;;-3.90;99.90;;;;;;4980950;28;20138;-72
2021/01/08 07:19:44;;;;;;;21.25;8.57;;;-4.00;99.90;;;;;;4975967;28;20038;-73
2021/01/08 07:22:19;;;;;;;20.08;8.32;;;-4.00;99.90;;;;;;4981762;28;20064;-72
2021/01/08 07:24:47;;;;;;;19.65;7.90;;;-4.00;99.90;;;;;;4978180;28;20042;-72
2021/01/08 07:27:16;;;;;;;16.13;7.95;;;-3.90;99.90;;;;;;4981210;28;20369;-73
2021/01/08 07:29:54;;;;;;;21.60;8.15;;;-3.90;99.90;;;;;;4979769;28;20568;-72
2021/01/08 07:32:38;;;;;;;23.70;9.93;;;-3.90;99.90;;;;;;4979592;28;20030;-72
2021/01/08 07:35:25;;;;;;;23.30;13.23;;;-3.80;99.90;;;;;;4975846;28;20035;-72
2021/01/08 07:38:07;;;;;;;25.05;13.15;;;-3.80;99.90;;;;;;4979863;28;20032;-76
2021/01/08 07:40:33;;;;;;;18.57;11.43;;;-3.90;99.90;;;;;;4987904;28;20507;-73
2021/01/08 07:43:00;;;;;;;22.73;10.88;;;-4.00;99.90;;;;;;4988050;28;20037;-72
2021/01/08 07:45:52;;;;;;;25.73;11.40;;;-4.00;99.90;;;;;;4986450;28;20050;-72
2021/01/08 07:48:38;;;;;;;21.13;9.97;;;-3.90;99.90;;;;;;4979847;28;20489;-73
2021/01/08 07:51:05;;;;;;;28.42;14.52;;;-3.90;99.90;;;;;;4979537;28;20061;-72
2021/01/08 07:53:43;;;;;;;26.88;14.63;;;-3.90;99.90;;;;;;4981274;28;20401;-72
2021/01/08 07:56:22;;;;;;;35.30;18.33;;;-3.80;99.90;;;;;;4983770;28;20062;-72
2021/01/08 07:58:57;;;;;;;48.08;22.25;;;-3.80;99.90;;;;;;4988105;28;20382;-72
2021/01/08 08:01:23;;;;;;;33.25;17.77;;;-3.70;99.90;;;;;;4982530;28;20046;-72
2021/01/08 08:04:01;;;;;;;26.23;12.32;;;-3.80;99.90;;;;;;4977860;28;20045;-72
2021/01/08 08:06:29;;;;;;;16.83;8.07;;;-3.80;99.90;;;;;;4978954;28;20081;-72
2021/01/08 08:08:58;;;;;;;39.97;8.00;;;-3.80;99.90;;;;;;4987256;28;20026;-74
2021/01/08 08:11:27;;;;;;;16.73;7.10;;;-3.90;99.90;;;;;;4982965;28;20042;-72
2021/01/08 08:13:56;;;;;;;16.83;7.40;;;-3.90;99.90;;;;;;4976160;28;20461;-72
2021/01/08 08:16:30;;;;;;;14.25;7.25;;;-3.80;99.90;;;;;;4972656;28;20034;-72
2021/01/08 08:18:56;;;;;;;21.70;8.75;;;-3.90;99.90;;;;;;4985553;28;20045;-72
2021/01/08 08:21:21;;;;;;;25.27;13.90;;;-3.80;99.90;;;;;;4979044;28;20038;-72
2021/01/08 08:23:58;;;;;;;27.85;14.60;;;-3.90;99.90;;;;;;4981171;28;20038;-72
2021/01/08 08:26:25;;;;;;;28.40;14.13;;;-3.80;99.90;;;;;;4975138;28;20043;-72
2021/01/08 08:28:58;;;;;;;28.83;14.95;;;-3.80;99.90;;;;;;4979853;28;20030;-72
2021/01/08 08:31:27;;;;;;;31.77;14.85;;;-3.70;99.90;;;;;;4973879;28;20065;-72
2021/01/08 08:33:53;;;;;;;41.33;18.88;;;-3.70;99.90;;;;;;4982662;28;20097;-72
2021/01/08 08:36:25;;;;;;;23.73;11.07;;;-3.70;99.90;;;;;;4973472;28;20121;-72
2021/01/08 08:38:57;;;;;;;;;;;-3.70;99.90;;;;;;4984554;28;20038;-74
2021/01/08 08:41:23;;;;;;;20.60;8.15;;;-3.70;99.90;;;;;;4981233;28;20330;-73
2021/01/08 08:43:49;;;;;;;17.77;7.68;;;-3.70;99.90;;;;;;4978813;28;20057;-72
2021/01/08 08:46:14;;;;;;;19.25;8.50;;;-3.70;99.90;;;;;;4984676;28;20037;-72
2021/01/08 08:48:40;;;;;;;17.75;7.53;;;-3.70;99.90;;;;;;4978911;28;20631;-72
2021/01/08 08:51:06;;;;;;;26.08;10.82;;;-3.70;99.90;;;;;;4972971;28;20043;-72
2021/01/08 08:53:31;;;;;;;28.20;12.45;;;-3.70;99.90;;;;;;4980596;28;20248;-72
2021/01/08 08:55:57;;;;;;;25.25;13.13;;;-3.70;99.90;;;;;;4978739;28;20478;-72
2021/01/08 08:58:23;;;;;;;21.77;10.13;;;-3.70;99.90;;;;;;4980090;28;20042;-72
2021/01/08 09:00:51;;;;;;;19.23;8.82;;;-3.70;99.90;;;;;;4981042;28;20159;-72
2021/01/08 09:03:21;;;;;;;16.58;7.03;;;-3.70;99.90;;;;;;4982272;28;20153;-72
2021/01/08 09:05:52;;;;;;;14.98;6.15;;;-3.60;99.90;;;;;;4979367;28;20054;-72
2021/01/08 09:08:31;;;;;;;17.00;7.95;;;-3.60;99.90;;;;;;4986783;28;20359;-72
2021/01/08 09:11:24;;;;;;;16.42;6.60;;;-3.60;99.90;;;;;;4984548;28;20026;-72
2021/01/08 09:14:03;;;;;;;20.33;8.48;;;-3.60;99.90;;;;;;4980565;28;20048;-75
2021/01/08 09:16:40;;;;;;;27.27;11.85;;;-3.50;99.90;;;;;;4969598;28;20756;-72
2021/01/08 09:19:08;;;;;;;32.58;15.48;;;-3.40;99.90;;;;;;4974216;28;20026;-73
2021/01/08 09:21:41;;;;;;;34.25;14.32;;;-3.50;99.90;;;;;;4980670;28;20081;-72
2021/01/08 09:24:13;;;;;;;36.17;16.00;;;-3.50;99.90;;;;;;4977344;28;20465;-72
2021/01/08 09:26:43;;;;;;;34.15;14.48;;;-3.40;99.90;;;;;;4972922;28;20026;-72
2021/01/08 09:29:09;;;;;;;18.60;9.45;;;-3.40;99.90;;;;;;4979985;28;20073;-72
2021/01/08 09:31:40;;;;;;;15.52;8.60;;;-3.50;99.90;;;;;;4975919;28;20474;-75
2021/01/08 09:34:06;;;;;;;17.87;8.90;;;-3.40;99.90;;;;;;4983446;28;20034;-72
2021/01/08 09:36:34;;;;;;;23.77;8.57;;;-3.40;99.90;;;;;;4972823;28;20724;-72
2021/01/08 09:39:03;;;;;;;18.35;7.28;;;-3.40;99.90;;;;;;4972469;28;20034;-75
2021/01/08 09:41:31;;;;;;;20.30;8.43;;;-3.30;99.90;;;;;;4983048;28;20030;-75
2021/01/08 09:43:59;;;;;;;18.70;9.38;;;-3.30;99.90;;;;;;4969130;28;20041;-75
2021/01/08 09:46:25;;;;;;;20.58;10.20;;;-3.20;99.90;;;;;;4978653;28;20042;-72
2021/01/08 09:48:51;;;;;;;33.95;16.15;;;-3.20;99.90;;;;;;4973929;28;20038;-75
2021/01/08 09:51:17;;;;;;;32.75;18.48;;;-3.20;99.90;;;;;;4985424;28;20053;-72
2021/01/08 09:53:54;;;;;;;44.05;24.23;;;-3.10;99.90;;;;;;4976417;28;20058;-73
2021/01/08 09:56:21;;;;;;;59.92;36.03;;;-3.10;99.90;;;;;;4976282;28;20354;-72
2021/01/08 09:58:47;;;;;;;56.92;28.73;;;-3.00;99.90;;;;;;4982984;28;20061;-72
2021/01/08 10:01:13;;;;;;;33.28;14.25;;;-3.00;99.90;;;;;;4972134;28;20034;-72
2021/01/08 10:03:49;;;;;;;28.50;12.85;;;-3.00;99.90;;;;;;4971779;28;20077;-72
2021/01/08 10:06:15;;;;;;;20.75;10.13;;;-3.00;99.90;;;;;;4975587;28;20045;-72
2021/01/08 10:08:41;;;;;;;29.00;14.07;;;-2.80;99.90;;;;;;4976811;28;20030;-72
2021/01/08 10:11:07;;;;;;;31.15;16.65;;;-2.60;99.90;;;;;;4977766;28;20051;-75
2021/01/08 10:13:34;;;;;;;29.02;14.05;;;-2.50;99.90;;;;;;4981033;28;20030;-72
2021/01/08 10:16:08;;;;;;;29.05;14.20;;;-2.30;99.90;;;;;;4959657;28;20576;-72
2021/01/08 10:18:36;;;;;;;29.00;14.48;;;-2.30;99.90;;;;;;4976626;28;20053;-72
2021/01/08 10:21:08;;;;;;;25.77;12.77;;;-2.20;99.90;;;;;;4975514;28;20528;-74
2021/01/08 10:23:45;;;;;;;24.13;12.57;;;-2.00;99.90;;;;;;4983233;28;20037;-72
2021/01/08 10:26:14;;;;;;;27.52;13.15;;;-1.80;99.90;;;;;;4973889;28;20041;-72
2021/01/08 10:28:56;;;;;;;25.33;13.15;;;-1.60;99.90;;;;;;4984734;28;20572;-75
2021/01/08 10:31:23;;;;;;;30.05;14.52;;;-1.40;99.90;;;;;;4978069;28;20162;-75
2021/01/08 10:33:50;;;;;;;27.42;12.40;;;-1.40;99.90;;;;;;4980527;28;20501;-72
2021/01/08 10:36:16;;;;;;;21.42;7.97;;;-1.20;99.90;;;;;;4981181;28;20088;-72
2021/01/08 10:38:42;;;;;;;15.25;8.02;;;-1.10;99.90;;;;;;4984480;28;20512;-72
2021/01/08 10:41:08;;;;;;;17.85;8.35;;;-1.00;99.90;;;;;;4977282;28;20061;-75
2021/01/08 10:43:34;;;;;;;23.15;13.77;;;-0.90;99.90;;;;;;4985681;28;20038;-72
2021/01/08 10:46:03;;;;;;;23.52;13.52;;;-0.90;99.90;;;;;;4976015;28;20470;-72
2021/01/08 10:48:30;;;;;;;23.25;12.65;;;-0.70;99.90;;;;;;4980519;28;20442;-75
2021/01/08 10:50:55;;;;;;;34.80;17.75;;;-0.70;99.90;;;;;;4975961;28;20030;-72
2021/01/08 10:53:21;;;;;;;38.83;21.02;;;-0.70;99.90;;;;;;4975103;28;20046;-72
2021/01/08 10:55:47;;;;;;;43.75;22.05;;;-0.60;99.90;;;;;;4977063;28;20062;-72
2021/01/08 10:58:15;;;;;;;33.83;15.38;;;-0.70;99.90;;;;;;4977163;28;20098;-72
2021/01/08 11:00:48;;;;;;;76.05;36.22;;;-0.50;99.90;;;;;;4975761;28;20030;-72
2021/01/08 11:03:13;;;;;;;37.88;17.88;;;-0.40;99.90;;;;;;4973916;28;20057;-75
2021/01/08 11:05:42;;;;;;;30.38;14.02;;;-0.20;99.90;;;;;;4979262;28;20497;-72
2021/01/08 11:08:09;;;;;;;15.80;7.63;;;-0.10;99.90;;;;;;4978580;28;20500;-72
2021/01/08 11:10:39;;;;;;;19.15;7.18;;;-0.20;99.90;;;;;;4979547;28;20100;-74
2021/01/08 11:13:05;;;;;;;19.50;9.30;;;0.00;99.90;;;;;;4977364;28;20110;-72
2021/01/08 11:15:31;;;;;;;17.90;8.00;;;0.00;99.90;;;;;;4977049;28;20054;-72
2021/01/08 11:17:57;;;;;;;15.57;6.75;;;0.10;99.90;;;;;;4978686;28;20027;-72
2021/01/08 11:20:23;;;;;;;21.50;7.93;;;0.10;99.90;;;;;;4973779;28;20073;-73
2021/01/08 11:22:48;;;;;;;14.93;7.40;;;0.20;99.90;;;;;;4975608;28;20541;-73
2021/01/08 11:25:14;;;;;;;25.60;13.57;;;0.10;99.90;;;;;;4964872;28;20065;-72
2021/01/08 11:27:41;;;;;;;18.38;10.00;;;0.40;99.90;;;;;;4978769;28;20034;-75
2021/01/08 11:30:08;;;;;;;15.98;8.32;;;0.40;99.90;;;;;;4977599;28;20429;-72
2021/01/08 11:32:34;;;;;;;12.32;5.63;;;0.60;99.90;;;;;;4975387;28;20081;-72
2021/01/08 11:35:00;;;;;;;11.75;6.38;;;0.60;99.90;;;;;;4968197;28;20031;-72
2021/01/08 11:37:29;;;;;;;10.23;5.57;;;0.70;99.90;;;;;;4974210;28;20026;-72
2021/01/08 11:39:55;;;;;;;8.13;3.42;;;0.70;99.90;;;;;;4980494;28;20551;-72
2021/01/08 11:42:20;;;;;;;12.68;7.60;;;0.90;99.90;;;;;;4973871;28;20108;-72
2021/01/08 11:44:46;;;;;;;17.08;9.55;;;1.00;99.90;;;;;;4976090;28;20054;-72
2021/01/08 11:47:12;;;;;;;9.20;3.45;;;1.10;99.90;;;;;;4978818;28;20065;-72
2021/01/08 11:49:37;;;;;;;14.65;7.50;;;1.10;99.90;;;;;;4981276;28;20045;-72
2021/01/08 11:52:03;;;;;;;9.43;4.13;;;1.30;99.90;;;;;;4975596;28;20041;-75
2021/01/08 11:54:29;;;;;;;6.60;2.67;;;1.40;99.90;;;;;;4968612;28;20035;-73
2021/01/08 11:56:55;;;;;;;6.53;3.08;;;1.50;99.90;;;;;;4974939;28;20031;-72
2021/01/08 11:59:21;;;;;;;8.40;4.00;;;1.60;99.90;;;;;;4973472;28;20418;-75
2021/01/08 12:01:46;;;;;;;7.15;3.17;;;1.70;99.90;;;;;;4981369;28;20037;-72
2021/01/08 12:04:12;;;;;;;7.18;3.53;;;1.80;99.90;;;;;;4973340;28;20031;-72
2021/01/08 12:06:38;;;;;;;6.13;2.67;;;1.90;99.90;;;;;;4983215;28;20250;-72
2021/01/08 12:09:08;;;;;;;9.45;4.18;;;2.00;99.90;;;;;;4969838;28;20037;-72
2021/01/08 12:11:33;;;;;;;9.25;3.95;;;2.10;99.90;;;;;;4973526;28;20043;-72
2021/01/08 12:13:59;;;;;;;7.25;3.25;;;2.10;99.90;;;;;;4980665;28;20023;-76
2021/01/08 12:16:31;;;;;;;7.63;3.42;;;2.00;99.90;;;;;;4970151;28;20042;-73
2021/01/08 12:18:57;;;;;;;8.68;3.85;;;1.80;99.90;;;;;;4972724;28;20077;-73
2021/01/08 12:21:22;;;;;;;13.15;4.63;;;2.00;99.90;;;;;;4979787;28;20532;-72
2021/01/08 12:23:49;;;;;;;7.20;3.13;;;2.10;99.90;;;;;;4976987;28;20474;-73
2021/01/08 12:26:16;;;;;;;7.53;3.63;;;2.20;99.90;;;;;;4982636;28;20038;-76
2021/01/08 12:28:42;;;;;;;7.82;3.03;;;2.00;99.90;;;;;;4987455;28;20037;-72
2021/01/08 12:31:07;;;;;;;7.30;3.13;;;2.10;99.90;;;;;;4983110;28;20034;-72
2021/01/08 12:33:33;;;;;;;8.90;4.22;;;2.20;99.90;;;;;;4977197;28;20035;-73
2021/01/08 12:35:59;;;;;;;6.30;2.30;;;2.30;99.90;;;;;;4982010;28;20058;-72
2021/01/08 12:38:24;;;;;;;7.53;2.35;;;2.30;99.90;;;;;;4979182;28;20355;-73
2021/01/08 12:40:50;;;;;;;6.38;2.70;;;2.30;99.90;;;;;;4980866;28;20117;-76